Tinker Air Force Base
KTIK : now visible

Airfield :











YOU CAN JOIN US ON...

 
LOGIN :

Register | Disclaimer

   EN    FR    IT 

 









Legend :    VFR   Marginal VFR   IFR   Intensive IFR   Very Intensive IFR
Visi :
Ceiling :
>= 8 km
>= 3000ft
5 to 8 km
1000 to 3000 ft
1500m to 5 km
500 to 1000 ft
800 to 1500m
200 to 500 ft
< 800m
< 200 ft
Symbols :   Thunderstorms  Fog  Heavy snow  Heavy precipitations  Wind > 20 kt






- Airport Elevation : 1291 ft


KTIK - Tinker Air Force Base

CURRENT METAR :
  • 262356Z 00000KT 5SM -FZRA BR OVC007 M01/M02 A3023 RMK AO2A FZDZE10FZRAB10E30UPB30E46FZRAB46 CIG 004 RWY13 SLP256 P0000 60054 T10111018 10000 21011 52007

EXPIRED METARs :
  • 262325Z 00000KT 4SM -FZRA BR OVC007 M01/M02 A3023 RMK AO2A FZDZE10FZRAB10 CIG 005 RWY13 SLP256
  • 262310Z 00000KT 5SM -FZRA BR OVC006 M01/M02 A3023 RMK AO2A FZDZE10FZRAB10 CIG 005 RWY13 SLP256
  • 262306Z 00000KT 5SM +FZDZ BR OVC006 M01/M02 A3023 RMK AO2A CIG 006V008 CIG 005 RWY13 SLP256
  • 262256Z 00000KT 5SM FZDZ BR OVC008 M01/M02 A3023 RMK AO2A FZRAE33DZB33E34FZDZB34 CIG 005 RWY13 SLP256 P0002 T10111019
  • 262237Z 00000KT 6SM FZDZ BR OVC008 M01/M02 A3022 RMK AO2A FZRAE33DZB33E34FZDZB34 CIG 005 RWY13 SLP252
  • 262204Z 00000KT 5SM -FZRA BR OVC008 M01/M01 A3021 RMK AO2A CIG 006V008 CIG 006 RWY13 SLP249
  • 262123Z 36003KT 8SM -FZRA OVC006 M01/M02 A3021 RMK AO2A FZRAE12UPB12 SLP248
  • 262104Z AUTO 36003KT 9SM FZRA VCTS OVC006 M01/M02 A3021 RMK AO2 CIG 006V008 SLP248

TAF AMD TAF KTIK
Valid from the 26 at 22:00 until the 27 at 23:00 UTC


262226Z 2622/2723 VRB06KT 8000 -FZRA OVC008 690001 510202 QNH3022INS
BECMG 2622/2623 VRB05KT 8000 -FZDZ OVC006 660001 520136 QNH3022INS
BECMG 2711/2712 35015KT 8000 -FZRA OVC006 690001 520136 QNH3017INS TX00/2717Z TNM02/2708Z
KZFW FIR / North America



MET'MAP, your aeronautical weather chart ! - Copyright ORBIFLY December 2007 - Disclaimer

ORBIFLY MET'MAP TEAM :

Programming & Development : Alexandra Zaïnal
Concept & original design : Baudouin d'Aumeries
Assistance for programming : Marc-Olivier Méhu
Technical & hardware support : Manuel Goepfert

Contact : metmap@orbifly.com




SOURCES & CREDITS :

   NOAA       Earth
Advisory